map of HOM home
HOM - Airport
Location
City:  Homer, Alaska, United States
ICAO:PAHO
IATA:HOM
FAA LID:HOM

Details
Type:Airport (Part 139 Class I)
Use:Public/Civil
Latitude:5938'42"N (59.644995)
Longitude:15129'09"W (-151.485807)
Datum:WGS 1984
Elevation:84 ft (26 m)
Variation:15.15E (WMM2015 magnetic declination)
-0.31 annual change
Runways:1
Longest:6701 × 150 ft (2042 × 45.5 m), paved

Time
Time Zone:UTC-9 (DST-8)
Local Time:

Weather
METAR:PAHO 180453Z 00000KT 10SM CLR M02/M03 A2958 RMK AO2 SLP017 I1000 T10221028
TAF:PAHO 172325Z 1800/1824 VRB04KT P6SM SKC

Related Locations
Nearby:
Farthest:FAAF: 10669 mi / 17170 km
Struisbaai [Andrew's Field Airport], WC, ZA

Find:

   beyond  
but within

Other Information
Maps:
NOTAMs:
Links:
Sources:

  
  • flag of United States
  • flag of Alaska
  

Sectional Chart

Flight Planning
at skyvector.com

Satellite Image

Google Maps Satellite view

 

Copyright © 2004-2019 Karl L. Swartz. All rights reserved.
The Great Circle Mapper name and logo are trademarks of the Great Circle Mapper.
All other trademarks mentioned herein belong to their respective owners.
Please see credits for attibutions and further copyright information.

  Follow gcmap on Facebook Follow gcmap on Twitter Follow gcmap on Google+ GCmap on LinkedIn

hCard Microformat

Geo Microformat